Time;durP1;ratioP1;P1;durP2;ratioP2;P2;SDS_P1;SDS_P2;PMS_P1;PMS_P2;Temp;Humidity;BMP_temperature;BMP_pressure;BME280_temperature;BME280_humidity;BME280_pressure;Samples;Min_cycle;Max_cycle;Signal;HPM_P1;HPM_P2
2021/10/02 00:44:43;;;;;;;3.90;1.98;;;15.40;99.90;;;;;;2082455;28;19913;-69
2021/10/02 00:45:44;;;;;;;4.15;2.00;;;15.40;99.90;;;;;;2088396;28;20037;-69
2021/10/02 00:46:47;;;;;;;2.92;1.77;;;15.40;99.90;;;;;;2082237;28;20025;-69
2021/10/02 00:47:47;;;;;;;2.42;1.42;;;15.50;99.90;;;;;;2080138;28;20068;-69
2021/10/02 00:48:48;;;;;;;4.03;1.90;;;15.50;99.90;;;;;;2079882;28;20025;-69
2021/10/02 00:49:52;;;;;;;3.58;2.00;;;15.50;99.90;;;;;;2080069;28;20679;-69
2021/10/02 00:50:58;;;;;;;1.83;1.50;;;15.50;99.90;;;;;;2080264;28;20036;-69
2021/10/02 00:51:59;;;;;;;2.33;1.77;;;15.60;99.90;;;;;;2083278;28;20040;-69
2021/10/02 00:52:59;;;;;;;1.90;1.70;;;15.60;99.90;;;;;;2084610;28;20116;-69
2021/10/02 00:54:00;;;;;;;1.98;1.80;;;15.60;99.90;;;;;;2080266;28;20470;-69
2021/10/02 00:55:00;;;;;;;4.20;1.77;;;15.60;99.90;;;;;;2087934;28;20519;-69
2021/10/02 00:56:01;;;;;;;1.75;1.65;;;15.60;99.90;;;;;;2087654;28;20036;-69
2021/10/02 00:57:02;;;;;;;1.85;1.60;;;15.70;99.90;;;;;;2087932;28;20025;-69
2021/10/02 00:58:03;;;;;;;2.42;1.60;;;15.60;99.90;;;;;;2082411;28;20029;-69
2021/10/02 00:59:03;;;;;;;3.00;1.90;;;15.70;99.90;;;;;;2083146;28;20032;-69
2021/10/02 01:00:09;;;;;;;2.67;1.77;;;15.70;99.90;;;;;;2079632;28;20452;-69
2021/10/02 01:01:11;;;;;;;1.77;1.58;;;15.70;99.90;;;;;;2085850;28;20056;-69
2021/10/02 01:02:26;;;;;;;1.83;1.55;;;15.70;99.90;;;;;;2084055;28;20529;-69
2021/10/02 01:03:48;;;;;;;1.58;1.40;;;15.70;99.90;;;;;;2080305;28;20470;-69
2021/10/02 01:05:25;;;;;;;2.65;1.50;;;15.70;99.90;;;;;;2080037;28;20457;-68
2021/10/02 01:06:58;;;;;;;1.65;1.50;;;15.60;99.90;;;;;;2080322;28;20079;-69
2021/10/02 01:08:05;;;;;;;1.63;1.30;;;15.60;99.90;;;;;;2079469;28;20112;-69
2021/10/02 01:09:34;;;;;;;1.60;1.50;;;15.60;99.90;;;;;;2079159;28;20474;-69
2021/10/02 01:11:03;;;;;;;2.40;1.70;;;15.60;99.90;;;;;;2082634;28;20127;-69
2021/10/02 01:12:23;;;;;;;4.00;1.60;;;15.60;99.90;;;;;;2081392;28;20139;-69
2021/10/02 01:13:35;;;;;;;1.70;1.60;;;15.60;99.90;;;;;;2088269;28;20025;-69
2021/10/02 01:15:08;;;;;;;2.33;1.52;;;15.60;99.90;;;;;;2079819;28;20028;-69
2021/10/02 01:16:11;;;;;;;2.65;1.75;;;15.60;99.90;;;;;;2064298;28;20110;-69
2021/10/02 01:17:28;;;;;;;4.22;1.80;;;15.60;99.90;;;;;;2081194;28;20029;-69
2021/10/02 01:18:48;;;;;;;4.13;1.83;;;15.60;99.90;;;;;;2079653;28;20117;-69
2021/10/02 01:19:54;;;;;;;;;;;15.60;99.90;;;;;;2080673;28;20021;-69
2021/10/02 01:21:39;;;;;;;2.08;1.60;;;15.50;99.90;;;;;;2087176;28;19905;-69
2021/10/02 01:22:52;;;;;;;2.83;1.90;;;15.50;99.90;;;;;;2080296;28;20057;-69
2021/10/02 01:24:02;;;;;;;1.50;1.40;;;15.50;99.90;;;;;;2079984;28;20021;-69
2021/10/02 01:25:21;;;;;;;;;;;15.50;99.90;;;;;;2087817;28;20484;-68
2021/10/02 01:27:00;;;;;;;2.70;1.50;;;15.40;99.90;;;;;;2079953;28;19909;-68
2021/10/02 01:28:17;;;;;;;2.50;1.48;;;15.40;99.90;;;;;;2079521;28;20049;-68
2021/10/02 01:29:19;;;;;;;1.65;1.50;;;15.50;99.90;;;;;;2080134;28;20025;-69
2021/10/02 01:30:37;;;;;;;2.13;1.65;;;15.50;99.90;;;;;;2081969;28;20056;-69
2021/10/02 01:31:46;;;;;;;1.90;1.70;;;15.50;99.90;;;;;;2086611;28;20421;-69
2021/10/02 01:33:00;;;;;;;2.05;1.83;;;15.50;99.90;;;;;;2080315;28;20040;-69
2021/10/02 01:34:16;;;;;;;4.90;1.92;;;15.50;99.90;;;;;;2080340;28;20029;-69
2021/10/02 01:35:34;;;;;;;1.75;1.65;;;15.50;99.90;;;;;;2080228;28;20033;-69
2021/10/02 01:36:55;;;;;;;1.60;1.50;;;15.50;99.90;;;;;;2079914;28;20101;-69
2021/10/02 01:47:09;;;;;;;2.20;1.55;;;15.50;99.90;;;;;;2080994;28;20022;-68
2021/10/02 01:47:37;;;;;;;3.58;2.17;;;15.50;99.90;;;;;;2088366;28;20037;-68
2021/10/02 01:48:40;;;;;;;4.05;1.83;;;15.50;99.90;;;;;;2087267;28;20401;-68
2021/10/02 01:49:50;;;;;;;2.38;1.83;;;15.60;99.90;;;;;;2084067;28;20075;-69
2021/10/02 01:50:51;;;;;;;2.13;1.88;;;15.60;99.90;;;;;;2084047;28;20061;-68
2021/10/02 01:51:53;;;;;;;3.15;2.00;;;15.60;99.90;;;;;;2076209;28;20544;-68
2021/10/02 01:52:59;;;;;;;3.85;2.00;;;15.60;99.90;;;;;;2085116;28;20389;-68
2021/10/02 01:54:01;;;;;;;2.83;2.00;;;15.60;99.90;;;;;;2087757;28;20033;-69
2021/10/02 01:55:03;;;;;;;2.03;1.83;;;15.60;99.90;;;;;;2086734;28;20024;-69
2021/10/02 01:56:06;;;;;;;1.92;1.75;;;15.60;99.90;;;;;;2085569;28;20029;-69
2021/10/02 01:57:08;;;;;;;4.68;2.10;;;15.60;99.90;;;;;;2085721;28;20366;-69
2021/10/02 01:58:13;;;;;;;3.03;1.98;;;15.70;99.90;;;;;;2081449;28;20031;-69
2021/10/02 01:59:15;;;;;;;3.55;1.98;;;15.70;99.90;;;;;;2083737;28;20017;-68
2021/10/02 02:00:17;;;;;;;2.72;1.95;;;15.60;99.90;;;;;;2079844;28;20045;-68
2021/10/02 02:01:19;;;;;;;2.22;2.00;;;15.70;99.90;;;;;;2086426;28;20077;-68
2021/10/02 02:02:25;;;;;;;3.78;2.33;;;15.70;99.90;;;;;;2087443;28;20572;-69
2021/10/02 02:03:27;;;;;;;2.05;1.70;;;15.70;99.90;;;;;;2080230;28;20033;-69
2021/10/02 02:04:31;;;;;;;2.60;1.83;;;15.70;99.90;;;;;;2079722;28;20026;-69
2021/10/02 02:05:34;;;;;;;1.70;1.60;;;15.70;99.90;;;;;;2081263;28;20076;-69
2021/10/02 02:06:36;;;;;;;2.40;1.65;;;15.70;99.90;;;;;;2079635;28;20041;-69
2021/10/02 02:07:41;;;;;;;1.50;1.40;;;15.70;99.90;;;;;;2079618;28;20025;-69
2021/10/02 02:08:43;;;;;;;2.13;1.88;;;15.70;99.90;;;;;;2079285;28;20049;-69
2021/10/02 02:09:44;;;;;;;2.30;2.10;;;15.70;99.90;;;;;;2084225;28;20532;-69
2021/10/02 02:10:46;;;;;;;1.90;1.80;;;15.70;99.90;;;;;;2084808;28;20086;-69
2021/10/02 02:11:47;;;;;;;2.03;1.85;;;15.70;99.90;;;;;;2079783;28;20462;-68
2021/10/02 02:12:54;;;;;;;2.70;2.20;;;15.70;99.90;;;;;;2080023;28;20030;-69
2021/10/02 02:13:59;;;;;;;2.45;1.83;;;15.70;99.90;;;;;;2079890;28;20029;-68
2021/10/02 02:15:09;;;;;;;1.95;1.85;;;15.70;99.90;;;;;;2078996;28;20033;-68
2021/10/02 02:16:11;;;;;;;2.03;1.70;;;15.70;99.90;;;;;;2086692;28;20025;-68
2021/10/02 02:17:15;;;;;;;3.35;2.08;;;15.70;99.90;;;;;;2087996;28;20064;-68
2021/10/02 02:18:20;;;;;;;2.70;2.13;;;15.70;99.90;;;;;;2087593;28;20085;-69
2021/10/02 02:19:22;;;;;;;2.13;1.83;;;15.70;99.90;;;;;;2087922;28;20172;-69
2021/10/02 02:20:30;;;;;;;3.30;1.90;;;15.70;99.90;;;;;;2087763;28;20520;-69
2021/10/02 02:21:31;;;;;;;1.98;1.73;;;15.70;99.90;;;;;;2087741;28;20106;-69
2021/10/02 02:22:32;;;;;;;2.97;2.00;;;15.70;99.90;;;;;;2081165;28;20121;-69
2021/10/02 02:23:34;;;;;;;2.10;1.83;;;15.70;99.90;;;;;;2079656;28;20029;-69
2021/10/02 02:24:35;;;;;;;5.05;2.25;;;15.70;99.90;;;;;;2079889;28;20029;-69
2021/10/02 02:25:37;;;;;;;6.72;2.03;;;15.70;99.90;;;;;;2079712;28;20117;-69
2021/10/02 02:26:38;;;;;;;1.95;1.73;;;15.70;99.90;;;;;;2082377;28;20040;-69
2021/10/02 02:27:39;;;;;;;2.22;1.75;;;15.70;99.90;;;;;;2079700;28;20029;-69
2021/10/02 02:28:41;;;;;;;2.35;1.77;;;15.70;99.90;;;;;;2079115;28;20442;-69
2021/10/02 02:29:42;;;;;;;1.98;1.85;;;15.70;99.90;;;;;;2079606;28;20057;-69
2021/10/02 02:30:44;;;;;;;2.40;1.52;;;15.70;99.90;;;;;;2080811;28;20025;-69
2021/10/02 02:31:46;;;;;;;2.33;2.10;;;15.70;99.90;;;;;;2085587;28;20025;-69
2021/10/02 02:32:47;;;;;;;2.00;1.83;;;15.70;99.90;;;;;;2079945;28;20646;-69
2021/10/02 02:33:48;;;;;;;2.33;1.77;;;15.80;99.90;;;;;;2082350;28;20047;-69
2021/10/02 02:34:49;;;;;;;1.92;1.73;;;15.80;99.90;;;;;;2087128;28;20033;-69
2021/10/02 02:35:52;;;;;;;5.25;2.10;;;15.80;99.90;;;;;;2079301;28;20040;-69
2021/10/02 02:36:52;;;;;;;2.65;1.70;;;15.80;99.90;;;;;;2079654;28;20041;-69
2021/10/02 02:37:54;;;;;;;1.90;1.67;;;15.70;99.90;;;;;;2080470;28;20056;-69
2021/10/02 02:38:55;;;;;;;1.88;1.48;;;15.80;99.90;;;;;;2086783;28;20032;-69
2021/10/02 02:39:55;;;;;;;19.63;2.35;;;15.80;99.90;;;;;;2084185;28;20021;-69
2021/10/02 02:40:57;;;;;;;1.98;1.77;;;15.80;99.90;;;;;;2086773;28;20084;-69
2021/10/02 02:41:57;;;;;;;4.05;1.85;;;15.80;99.90;;;;;;2080809;28;20111;-69
2021/10/02 02:42:58;;;;;;;1.60;1.50;;;15.80;99.90;;;;;;2080015;28;20079;-69
2021/10/02 02:43:58;;;;;;;4.22;1.67;;;15.80;99.90;;;;;;2079539;28;20080;-69
2021/10/02 02:44:59;;;;;;;2.17;1.83;;;15.80;99.90;;;;;;2084625;28;20104;-69
2021/10/02 02:46:11;;;;;;;2.53;1.95;;;15.80;99.90;;;;;;2087702;28;20513;-69
2021/10/02 02:47:19;;;;;;;2.58;1.90;;;15.80;99.90;;;;;;2079987;28;20030;-69
2021/10/02 02:48:25;;;;;;;1.80;1.70;;;15.80;99.90;;;;;;2079056;28;20112;-69
2021/10/02 02:49:50;;;;;;;1.75;1.65;;;15.70;99.90;;;;;;2079886;28;20018;-69
2021/10/02 02:51:04;;;;;;;1.63;1.52;;;15.80;99.90;;;;;;2080884;28;20962;-69
2021/10/02 02:52:11;;;;;;;3.28;2.00;;;15.70;99.90;;;;;;2079706;28;20113;-69
2021/10/02 02:53:31;;;;;;;2.17;1.75;;;15.70;99.90;;;;;;2079613;28;20457;-69
2021/10/02 02:54:37;;;;;;;2.40;2.08;;;15.80;99.90;;;;;;2079745;28;20037;-69
2021/10/02 02:55:54;;;;;;;1.95;1.48;;;15.70;99.90;;;;;;2079839;28;20057;-69
2021/10/02 02:57:01;;;;;;;2.50;2.08;;;15.70;99.90;;;;;;2087001;28;20098;-69
2021/10/02 02:58:04;;;;;;;1.70;1.60;;;15.70;99.90;;;;;;2082053;28;20021;-69
2021/10/02 02:59:13;;;;;;;3.17;1.83;;;15.70;99.90;;;;;;2083405;28;20017;-69
2021/10/02 03:00:18;;;;;;;2.05;1.85;;;15.70;99.90;;;;;;2079679;28;20022;-69
2021/10/02 03:01:20;;;;;;;2.42;2.20;;;15.70;99.90;;;;;;2086287;28;20568;-69
2021/10/02 03:02:23;;;;;;;2.25;2.05;;;15.70;99.90;;;;;;2081269;28;20021;-69
2021/10/02 03:03:33;;;;;;;2.85;2.15;;;15.70;99.90;;;;;;2087621;28;20019;-69
2021/10/02 03:04:34;;;;;;;;;;;15.70;99.90;;;;;;2088019;28;20035;-69
2021/10/02 03:05:40;;;;;;;1.80;1.70;;;15.60;99.90;;;;;;2087633;28;19948;-69
2021/10/02 03:06:46;;;;;;;2.03;1.90;;;15.60;99.90;;;;;;2087833;28;20036;-69
2021/10/02 03:08:16;;;;;;;2.85;1.42;;;15.60;99.90;;;;;;2088696;28;20087;-69
2021/10/02 03:09:17;;;;;;;2.53;1.63;;;15.70;99.90;;;;;;2078772;28;20477;-69
2021/10/02 03:10:18;;;;;;;2.10;1.73;;;15.60;99.90;;;;;;2089568;28;20032;-68
2021/10/02 03:11:21;;;;;;;2.00;1.90;;;15.60;99.90;;;;;;2083856;28;20037;-69
2021/10/02 03:12:31;;;;;;;3.20;2.08;;;15.70;99.90;;;;;;2084793;28;20025;-69
2021/10/02 03:13:35;;;;;;;3.67;2.10;;;15.70;99.90;;;;;;2089053;28;20025;-69
2021/10/02 03:14:37;;;;;;;3.30;2.20;;;15.70;99.90;;;;;;2081204;28;20559;-68
2021/10/02 03:15:40;;;;;;;2.03;1.83;;;15.70;99.90;;;;;;2080689;28;20057;-69
2021/10/02 03:16:43;;;;;;;5.00;2.17;;;15.70;99.90;;;;;;2081361;28;20022;-69
2021/10/02 03:17:46;;;;;;;3.25;2.15;;;15.70;99.90;;;;;;2081193;28;20401;-69
2021/10/02 03:18:53;;;;;;;2.92;2.42;;;15.70;99.90;;;;;;2080098;28;20036;-69
2021/10/02 03:19:54;;;;;;;3.35;1.98;;;15.70;99.90;;;;;;2080539;28;20088;-69
2021/10/02 03:20:57;;;;;;;2.33;2.05;;;15.80;99.90;;;;;;2081645;28;20041;-69
2021/10/02 03:21:58;;;;;;;2.55;1.95;;;15.80;99.90;;;;;;2081760;28;20033;-69
2021/10/02 03:22:59;;;;;;;2.97;2.67;;;15.70;99.90;;;;;;2081059;28;20022;-69
2021/10/02 03:24:02;;;;;;;2.50;2.30;;;15.80;99.90;;;;;;2080886;28;20033;-69
2021/10/02 03:25:03;;;;;;;3.67;2.45;;;15.80;99.90;;;;;;2081174;28;20033;-69
2021/10/02 03:26:05;;;;;;;2.58;2.38;;;15.80;99.90;;;;;;2080975;28;20469;-69
2021/10/02 03:27:08;;;;;;;2.10;1.92;;;15.80;99.90;;;;;;2081149;28;20030;-69
2021/10/02 03:28:09;;;;;;;2.70;2.50;;;15.80;99.90;;;;;;2080514;28;20102;-69
2021/10/02 03:29:10;;;;;;;2.45;2.22;;;15.80;99.90;;;;;;2080838;28;20033;-69
2021/10/02 03:30:11;;;;;;;3.08;2.60;;;15.80;99.90;;;;;;2082339;28;20017;-69
2021/10/02 03:31:12;;;;;;;2.20;2.10;;;15.80;99.90;;;;;;2084493;28;20041;-69
2021/10/02 03:32:13;;;;;;;3.25;2.70;;;15.80;99.90;;;;;;2082560;28;20033;-69
2021/10/02 03:33:14;;;;;;;2.63;2.42;;;15.80;99.90;;;;;;2080687;28;20018;-69
2021/10/02 03:34:15;;;;;;;3.03;2.28;;;15.80;99.90;;;;;;2080933;28;20021;-69
2021/10/02 03:35:17;;;;;;;5.53;2.65;;;15.80;99.90;;;;;;2080795;28;20096;-69
2021/10/02 03:36:18;;;;;;;2.67;2.28;;;15.80;99.90;;;;;;2081014;28;20091;-69
2021/10/02 03:37:20;;;;;;;2.03;1.83;;;15.80;99.90;;;;;;2082344;28;20046;-69
2021/10/02 03:38:23;;;;;;;2.40;2.20;;;15.80;99.90;;;;;;2083502;28;20360;-69
2021/10/02 03:39:24;;;;;;;2.90;2.70;;;15.80;99.90;;;;;;2089242;28;20036;-69
2021/10/02 03:40:24;;;;;;;2.78;2.40;;;15.80;99.90;;;;;;2085483;28;20099;-69
2021/10/02 03:41:25;;;;;;;2.30;1.92;;;15.80;99.90;;;;;;2086822;28;20025;-69
2021/10/02 03:42:26;;;;;;;3.17;2.47;;;15.80;99.90;;;;;;2080899;28;20025;-69
2021/10/02 03:43:31;;;;;;;3.10;2.80;;;15.80;99.90;;;;;;2080532;28;20462;-69
2021/10/02 03:44:32;;;;;;;3.03;2.75;;;15.80;99.90;;;;;;2081859;28;20029;-69
2021/10/02 03:45:36;;;;;;;3.20;2.88;;;15.80;99.90;;;;;;2089046;28;20033;-69
2021/10/02 03:46:37;;;;;;;2.83;2.50;;;15.90;99.90;;;;;;2088785;28;20033;-69
2021/10/02 03:47:37;;;;;;;4.53;3.08;;;15.90;99.90;;;;;;2089317;28;20112;-69
2021/10/02 03:48:38;;;;;;;2.88;2.58;;;15.80;99.90;;;;;;2088729;28;20037;-69
2021/10/02 03:49:39;;;;;;;2.85;2.63;;;15.90;99.90;;;;;;2089336;28;20036;-69
2021/10/02 03:50:40;;;;;;;2.92;2.40;;;15.90;99.90;;;;;;2088757;28;20023;-69
2021/10/02 03:51:46;;;;;;;4.70;3.08;;;15.90;99.90;;;;;;2081419;28;20045;-69
2021/10/02 03:52:46;;;;;;;2.72;2.38;;;15.80;99.90;;;;;;2080341;28;20029;-69
2021/10/02 03:53:47;;;;;;;3.38;3.08;;;15.80;99.90;;;;;;2087595;28;20541;-69
2021/10/02 03:54:48;;;;;;;3.47;2.80;;;15.90;99.90;;;;;;2083697;28;20025;-69
2021/10/02 03:55:48;;;;;;;3.00;2.70;;;15.90;99.90;;;;;;2086591;28;20040;-69
2021/10/02 03:56:49;;;;;;;3.60;2.90;;;15.80;99.90;;;;;;2080957;28;20092;-69
2021/10/02 03:57:49;;;;;;;3.63;3.20;;;15.80;99.90;;;;;;2086317;28;20022;-69
2021/10/02 03:58:50;;;;;;;3.70;2.67;;;15.80;99.90;;;;;;2085137;28;20025;-69
2021/10/02 03:59:50;;;;;;;3.05;2.78;;;15.80;99.90;;;;;;2087187;28;20074;-69
2021/10/02 04:00:51;;;;;;;3.72;2.92;;;15.80;99.90;;;;;;2086784;28;20028;-69
2021/10/02 04:01:52;;;;;;;3.05;2.72;;;15.80;99.90;;;;;;2087287;28;20385;-69
2021/10/02 04:02:53;;;;;;;3.25;2.95;;;15.80;99.90;;;;;;2083142;28;20028;-68
2021/10/02 04:03:53;;;;;;;3.30;2.90;;;15.80;99.90;;;;;;2088465;28;20762;-69
2021/10/02 04:04:54;;;;;;;3.40;2.60;;;15.80;99.90;;;;;;2088158;28;20021;-69
2021/10/02 04:05:54;;;;;;;4.05;3.30;;;15.80;99.90;;;;;;2085262;28;20488;-68
2021/10/02 04:06:55;;;;;;;4.65;3.30;;;15.80;99.90;;;;;;2080932;28;20084;-69
2021/10/02 04:07:55;;;;;;;3.00;2.80;;;15.80;99.90;;;;;;2080685;28;20022;-69
2021/10/02 04:08:56;;;;;;;3.05;2.67;;;15.80;99.90;;;;;;2080027;28;20029;-68
2021/10/02 04:09:57;;;;;;;3.10;2.88;;;15.80;99.90;;;;;;2080852;28;20025;-69
2021/10/02 04:11:02;;;;;;;3.40;3.10;;;15.90;99.90;;;;;;2081067;28;20064;-68
2021/10/02 04:12:03;;;;;;;3.30;3.00;;;15.90;99.90;;;;;;2088553;28;20024;-68
2021/10/02 04:13:05;;;;;;;3.22;2.92;;;15.90;99.90;;;;;;2080739;28;20049;-69
2021/10/02 04:14:06;;;;;;;3.10;2.80;;;15.90;99.90;;;;;;2080247;28;20441;-69
2021/10/02 04:15:07;;;;;;;3.05;2.85;;;15.80;99.90;;;;;;2080431;28;20056;-68
2021/10/02 04:16:07;;;;;;;3.42;2.80;;;15.80;99.90;;;;;;2080640;28;20080;-68
2021/10/02 04:17:08;;;;;;;3.20;2.50;;;15.80;99.90;;;;;;2080937;28;20068;-68
2021/10/02 04:18:08;;;;;;;2.70;2.50;;;15.80;99.90;;;;;;2079800;28;20100;-68
2021/10/02 04:19:09;;;;;;;4.07;2.55;;;15.80;99.90;;;;;;2080413;28;20029;-69
2021/10/02 04:20:10;;;;;;;6.88;3.15;;;15.80;99.90;;;;;;2080410;28;20026;-69
2021/10/02 04:21:12;;;;;;;3.47;2.67;;;15.80;99.90;;;;;;2082848;28;20040;-69
2021/10/02 04:22:12;;;;;;;3.15;2.85;;;15.90;99.90;;;;;;2084983;28;20025;-69
2021/10/02 04:23:13;;;;;;;4.07;2.47;;;15.90;99.90;;;;;;2080799;28;20105;-69
2021/10/02 04:24:13;;;;;;;3.33;2.95;;;15.90;99.90;;;;;;2080375;28;20017;-69
2021/10/02 04:25:14;;;;;;;3.70;2.58;;;15.90;99.90;;;;;;2080502;28;20108;-69
2021/10/02 04:26:15;;;;;;;2.50;2.30;;;15.90;99.90;;;;;;2084014;28;20729;-69
2021/10/02 04:27:15;;;;;;;3.58;2.58;;;15.80;99.90;;;;;;2083291;28;20062;-68
2021/10/02 04:28:16;;;;;;;3.60;3.30;;;15.80;99.90;;;;;;2079803;28;20030;-68
2021/10/02 04:29:17;;;;;;;2.80;2.60;;;15.80;99.90;;;;;;2080517;28;20376;-69
2021/10/02 04:30:17;;;;;;;3.22;3.03;;;15.90;99.90;;;;;;2080489;28;20143;-68
2021/10/02 04:31:18;;;;;;;3.00;2.70;;;15.90;99.90;;;;;;2083653;28;20021;-68
2021/10/02 04:32:19;;;;;;;3.47;2.90;;;15.90;99.90;;;;;;2081342;28;20032;-69
2021/10/02 04:33:21;;;;;;;5.10;2.95;;;15.90;99.90;;;;;;2080657;28;20048;-68
2021/10/02 04:34:22;;;;;;;3.55;2.53;;;15.90;99.90;;;;;;2080533;28;20021;-68
2021/10/02 04:35:22;;;;;;;3.35;3.05;;;15.90;99.90;;;;;;2080355;28;20120;-69
2021/10/02 04:36:23;;;;;;;2.78;2.45;;;15.90;99.90;;;;;;2080394;28;20026;-69
2021/10/02 04:37:24;;;;;;;3.42;2.58;;;15.90;99.90;;;;;;2081695;28;20025;-69
2021/10/02 04:38:25;;;;;;;2.60;2.40;;;15.90;99.90;;;;;;2083368;28;20071;-68
2021/10/02 04:39:26;;;;;;;3.20;2.65;;;15.90;99.90;;;;;;2088827;28;20039;-68
2021/10/02 04:40:27;;;;;;;5.40;2.80;;;15.90;99.90;;;;;;2085036;28;20074;-69
2021/10/02 04:41:28;;;;;;;2.65;2.45;;;15.90;99.90;;;;;;2085727;28;20071;-69
2021/10/02 04:42:28;;;;;;;3.85;3.00;;;15.90;99.90;;;;;;2080607;28;20465;-69
2021/10/02 04:43:31;;;;;;;3.45;3.15;;;15.90;99.90;;;;;;2080385;28;20052;-69
2021/10/02 04:44:32;;;;;;;3.20;3.00;;;15.90;99.90;;;;;;2080849;28;20025;-69
2021/10/02 04:45:33;;;;;;;2.40;1.83;;;15.90;99.90;;;;;;2087842;28;20072;-69
2021/10/02 04:46:33;;;;;;;3.20;2.90;;;15.90;99.90;;;;;;2088683;28;20025;-69
2021/10/02 04:47:34;;;;;;;2.88;2.58;;;15.90;99.90;;;;;;2088438;28;20487;-69
2021/10/02 04:48:34;;;;;;;4.30;2.88;;;15.90;99.90;;;;;;2087908;28;20029;-68
2021/10/02 04:49:35;;;;;;;2.88;2.67;;;15.90;99.90;;;;;;2088426;28;20047;-68
2021/10/02 04:50:35;;;;;;;2.60;2.40;;;15.90;99.90;;;;;;2088789;28;20032;-69
2021/10/02 04:51:37;;;;;;;3.22;2.88;;;15.90;99.90;;;;;;2083610;28;20104;-69
2021/10/02 04:52:38;;;;;;;3.42;3.13;;;15.90;99.90;;;;;;2080599;28;20469;-68
2021/10/02 04:53:39;;;;;;;3.65;3.33;;;15.90;99.90;;;;;;2080297;28;20414;-68
2021/10/02 04:54:40;;;;;;;3.33;3.03;;;15.90;99.90;;;;;;2082099;28;20099;-68
2021/10/02 04:55:42;;;;;;;4.47;3.38;;;16.00;99.90;;;;;;2080144;28;20037;-68
2021/10/02 04:56:42;;;;;;;4.18;3.28;;;15.90;99.90;;;;;;2080414;28;20025;-68
2021/10/02 04:57:43;;;;;;;3.45;3.15;;;15.90;99.90;;;;;;2084898;28;20112;-68
2021/10/02 04:58:44;;;;;;;3.60;3.10;;;15.90;99.90;;;;;;2081343;28;20078;-68
2021/10/02 04:59:44;;;;;;;3.45;2.67;;;15.90;99.90;;;;;;2082518;28;20030;-68
2021/10/02 05:00:45;;;;;;;6.57;3.67;;;15.90;99.90;;;;;;2081969;28;20140;-69
2021/10/02 05:01:45;;;;;;;3.15;2.85;;;15.90;99.90;;;;;;2086186;28;20448;-68
2021/10/02 05:02:46;;;;;;;2.45;2.25;;;15.90;99.90;;;;;;2084273;28;20485;-68
2021/10/02 05:03:47;;;;;;;3.65;3.10;;;16.00;99.90;;;;;;2080573;28;20060;-68
2021/10/02 05:04:48;;;;;;;3.70;3.40;;;15.90;99.90;;;;;;2080404;28;20434;-69
2021/10/02 05:05:49;;;;;;;3.45;3.15;;;15.90;99.90;;;;;;2079690;28;20377;-68
2021/10/02 05:06:49;;;;;;;3.92;3.35;;;15.90;99.90;;;;;;2080291;28;20041;-69
2021/10/02 05:07:50;;;;;;;3.67;3.22;;;15.90;99.90;;;;;;2080003;28;20504;-68
2021/10/02 05:08:50;;;;;;;3.63;3.30;;;15.90;99.90;;;;;;2079933;28;20037;-68
2021/10/02 05:09:51;;;;;;;3.85;3.53;;;16.00;99.90;;;;;;2079274;28;20029;-68
2021/10/02 05:10:52;;;;;;;6.70;3.67;;;15.90;99.90;;;;;;2079634;28;20056;-69
2021/10/02 05:11:52;;;;;;;3.95;3.53;;;15.90;99.90;;;;;;2086620;28;20446;-69
2021/10/02 05:12:53;;;;;;;3.20;2.97;;;15.90;99.90;;;;;;2081155;28;20052;-69
2021/10/02 05:13:55;;;;;;;3.55;3.03;;;15.90;99.90;;;;;;2080387;28;20498;-69
2021/10/02 05:14:55;;;;;;;3.88;3.10;;;15.90;99.90;;;;;;2080346;28;20057;-69
2021/10/02 05:15:56;;;;;;;3.20;2.90;;;15.90;99.90;;;;;;2080073;28;20040;-68
2021/10/02 05:16:57;;;;;;;3.58;3.28;;;15.90;99.90;;;;;;2080237;28;20389;-68
2021/10/02 05:17:57;;;;;;;4.85;3.20;;;15.90;99.90;;;;;;2079891;28;20022;-68
2021/10/02 05:18:58;;;;;;;3.22;2.92;;;15.90;99.90;;;;;;2079551;28;20063;-68
2021/10/02 05:19:58;;;;;;;5.30;3.13;;;15.90;99.90;;;;;;2080131;28;20021;-68
2021/10/02 05:20:59;;;;;;;2.95;2.58;;;15.90;99.90;;;;;;2080128;28;20085;-68
2021/10/02 05:22:00;;;;;;;3.10;2.80;;;15.90;99.90;;;;;;2085725;28;20783;-68
2021/10/02 05:23:00;;;;;;;4.63;3.03;;;15.90;99.90;;;;;;2088356;28;20028;-68
2021/10/02 05:24:01;;;;;;;4.57;3.65;;;15.90;99.90;;;;;;2083067;28;20029;-69
2021/10/02 05:25:02;;;;;;;3.17;2.90;;;15.90;99.90;;;;;;2079901;28;20052;-68
2021/10/02 05:26:02;;;;;;;4.20;3.53;;;15.90;99.90;;;;;;2080500;28;20029;-68
2021/10/02 05:27:13;;;;;;;4.07;3.38;;;15.90;99.90;;;;;;2083675;28;20029;-69
2021/10/02 05:28:13;;;;;;;;;;;15.80;99.90;;;;;;2088272;28;20487;-69
2021/10/02 05:29:14;;;;;;;3.28;3.03;;;15.70;99.90;;;;;;2088371;28;20344;-69
2021/10/02 05:30:14;;;;;;;4.80;3.88;;;15.70;99.90;;;;;;2087562;28;20029;-69
2021/10/02 05:31:16;;;;;;;4.63;3.40;;;15.70;99.90;;;;;;2086999;28;20483;-69
2021/10/02 05:32:18;;;;;;;3.45;3.15;;;15.80;99.90;;;;;;2080270;28;20021;-69
2021/10/02 05:33:18;;;;;;;4.53;3.72;;;15.80;99.90;;;;;;2079770;28;20022;-69
2021/10/02 05:34:19;;;;;;;3.88;3.47;;;15.80;99.90;;;;;;2080429;28;20025;-69
2021/10/02 05:35:21;;;;;;;4.50;2.63;;;15.80;99.90;;;;;;2084617;28;20029;-69
2021/10/02 05:36:21;;;;;;;4.00;3.60;;;15.80;99.90;;;;;;2088537;28;20036;-69
2021/10/02 05:37:23;;;;;;;4.90;3.55;;;15.80;99.90;;;;;;2086087;28;20052;-69
2021/10/02 05:38:24;;;;;;;4.40;3.25;;;15.80;99.90;;;;;;2083141;28;20043;-69
2021/10/02 05:39:25;;;;;;;4.60;3.50;;;15.70;99.90;;;;;;2088256;28;20020;-69
2021/10/02 05:40:25;;;;;;;3.90;3.28;;;15.80;99.90;;;;;;2084795;28;20114;-69
2021/10/02 05:41:26;;;;;;;3.75;3.28;;;15.70;99.90;;;;;;2085689;28;20040;-69
2021/10/02 05:42:27;;;;;;;3.50;3.20;;;15.70;99.90;;;;;;2080093;28;20048;-69
2021/10/02 05:43:27;;;;;;;4.57;3.22;;;15.70;99.90;;;;;;2079878;28;20026;-69
2021/10/02 05:44:28;;;;;;;4.05;3.65;;;15.70;99.90;;;;;;2080566;28;20064;-69
2021/10/02 05:45:30;;;;;;;3.50;3.20;;;15.70;99.90;;;;;;2088115;28;20547;-69
2021/10/02 05:46:30;;;;;;;3.75;3.10;;;15.70;99.90;;;;;;2088373;28;20032;-69
2021/10/02 05:47:31;;;;;;;4.47;3.60;;;15.80;99.90;;;;;;2088284;28;20039;-69
2021/10/02 05:48:32;;;;;;;3.47;3.17;;;15.70;99.90;;;;;;2087214;28;20032;-69
2021/10/02 05:49:32;;;;;;;5.63;3.60;;;15.80;99.90;;;;;;2087907;28;20040;-69
2021/10/02 05:50:33;;;;;;;3.80;2.95;;;15.80;99.90;;;;;;2083639;28;20021;-69
2021/10/02 05:51:34;;;;;;;4.18;3.28;;;15.70;99.90;;;;;;2081752;28;20072;-69
2021/10/02 05:52:34;;;;;;;5.00;3.00;;;15.80;99.90;;;;;;2083415;28;20108;-69
2021/10/02 05:53:35;;;;;;;4.15;2.90;;;15.80;99.90;;;;;;2087630;28;20029;-69
2021/10/02 05:54:37;;;;;;;3.72;3.13;;;15.70;99.90;;;;;;2088096;28;20025;-69
2021/10/02 05:55:37;;;;;;;3.30;3.00;;;15.70;99.90;;;;;;2088178;28;20025;-69
2021/10/02 05:56:38;;;;;;;3.58;3.28;;;15.80;99.90;;;;;;2087900;28;20029;-69
2021/10/02 05:57:39;;;;;;;4.13;2.80;;;15.80;99.90;;;;;;2085586;28;20017;-69
2021/10/02 05:58:39;;;;;;;3.47;3.17;;;15.80;99.90;;;;;;2080591;28;20018;-69
2021/10/02 05:59:40;;;;;;;4.60;3.42;;;15.70;99.90;;;;;;2082337;28;20103;-69
2021/10/02 06:00:40;;;;;;;3.78;3.47;;;15.70;99.90;;;;;;2081460;28;20257;-69
2021/10/02 06:01:41;;;;;;;3.50;3.17;;;15.70;99.90;;;;;;2080505;28;20098;-69
2021/10/02 06:02:41;;;;;;;5.05;2.90;;;15.70;99.90;;;;;;2079387;28;20033;-69
2021/10/02 06:03:42;;;;;;;3.17;2.83;;;15.70;99.90;;;;;;2080094;28;20049;-69
2021/10/02 06:04:43;;;;;;;3.00;2.67;;;15.70;99.90;;;;;;2079544;28;20025;-69
2021/10/02 06:05:43;;;;;;;4.28;2.63;;;15.70;99.90;;;;;;2079597;28;20113;-69
2021/10/02 06:06:44;;;;;;;3.03;2.72;;;15.70;99.90;;;;;;2079839;28;20037;-69
2021/10/02 06:07:44;;;;;;;3.58;2.60;;;15.70;99.90;;;;;;2080010;28;20032;-69
2021/10/02 06:08:45;;;;;;;2.88;2.67;;;15.80;99.90;;;;;;2079251;28;20413;-69
2021/10/02 06:09:46;;;;;;;2.65;2.45;;;15.70;99.90;;;;;;2085057;28;20032;-69
2021/10/02 06:10:46;;;;;;;3.17;2.85;;;15.70;99.90;;;;;;2085400;28;20448;-69
2021/10/02 06:11:47;;;;;;;3.00;2.70;;;15.70;99.90;;;;;;2092948;28;20059;-69
2021/10/02 06:12:50;;;;;;;3.42;2.45;;;15.70;99.90;;;;;;2089288;28;20496;-69
2021/10/02 06:13:50;;;;;;;3.58;2.72;;;15.70;99.90;;;;;;2085342;28;20032;-69
2021/10/02 06:14:51;;;;;;;2.28;2.17;;;15.70;99.90;;;;;;2079518;28;20037;-69
2021/10/02 06:15:52;;;;;;;3.58;2.38;;;15.70;99.90;;;;;;2079884;28;20030;-69
2021/10/02 06:16:52;;;;;;;5.25;2.70;;;15.70;99.90;;;;;;2079787;28;20109;-69
2021/10/02 06:17:54;;;;;;;2.40;2.20;;;15.70;99.90;;;;;;2079819;28;20389;-69
2021/10/02 06:18:54;;;;;;;2.85;2.10;;;15.70;99.90;;;;;;2079000;28;20026;-69
2021/10/02 06:19:55;;;;;;;2.55;2.35;;;15.70;99.90;;;;;;2079942;28;20053;-69
2021/10/02 06:20:55;;;;;;;2.58;2.15;;;15.70;99.90;;;;;;2085259;28;20021;-69
2021/10/02 06:21:58;;;;;;;4.13;2.50;;;15.80;99.90;;;;;;2086543;28;20063;-69
2021/10/02 06:23:03;;;;;;;2.75;2.38;;;15.80;99.90;;;;;;2079393;28;20381;-69
2021/10/02 06:24:04;;;;;;;2.58;2.28;;;15.80;99.90;;;;;;2079646;28;20078;-69